createdAt,value
2023-07-23T00:01:18.300Z,63.33
2023-07-23T00:03:46.068Z,62.53
2023-07-23T00:06:13.831Z,61.36
2023-07-23T00:08:41.554Z,61.40
2023-07-23T00:11:10.574Z,61.95
2023-07-23T00:13:38.215Z,61.67
2023-07-23T00:16:06.335Z,61.76
2023-07-23T00:18:34.061Z,61.55
2023-07-23T00:21:01.679Z,61.65
2023-07-23T00:23:31.876Z,61.15
2023-07-23T00:25:59.680Z,62.00
2023-07-23T00:28:28.716Z,62.30
2023-07-23T00:30:56.711Z,62.43
2023-07-23T00:33:24.719Z,63.31
2023-07-23T00:35:52.436Z,63.84
2023-07-23T00:38:22.594Z,63.86
2023-07-23T00:40:50.380Z,64.43
2023-07-23T00:43:20.555Z,64.75
2023-07-23T00:45:49.698Z,64.08
2023-07-23T00:48:18.058Z,64.66
2023-07-23T00:50:45.861Z,65.12
2023-07-23T00:53:13.588Z,64.92
2023-07-23T00:55:44.350Z,64.50
2023-07-23T00:58:12.428Z,64.64
2023-07-23T01:00:40.248Z,64.33
2023-07-23T01:03:09.353Z,64.33
2023-07-23T01:05:38.097Z,64.25
2023-07-23T01:08:06.361Z,63.82
2023-07-23T01:10:34.471Z,63.74
2023-07-23T01:13:02.337Z,63.17
2023-07-23T01:15:30.394Z,65.13
2023-07-23T01:17:58.943Z,63.96
2023-07-23T01:20:28.147Z,64.57
2023-07-23T01:22:57.162Z,63.17
2023-07-23T01:25:25.059Z,63.76
2023-07-23T01:27:52.719Z,62.95
2023-07-23T01:30:20.529Z,63.16
2023-07-23T01:32:48.887Z,62.95
2023-07-23T01:35:18.053Z,62.63
2023-07-23T01:37:48.352Z,62.65
2023-07-23T01:40:17.587Z,62.54
2023-07-23T01:42:46.378Z,62.38
2023-07-23T01:45:14.895Z,62.24
2023-07-23T01:47:42.852Z,61.94
2023-07-23T01:50:10.843Z,61.65
2023-07-23T01:52:40.678Z,61.44
2023-07-23T01:55:09.117Z,61.66
2023-07-23T01:57:38.179Z,61.99
2023-07-23T02:00:06.377Z,61.00
2023-07-23T02:02:40.857Z,61.30
2023-07-23T02:05:09.594Z,61.54
2023-07-23T02:07:39.593Z,61.01
2023-07-23T02:10:07.891Z,60.82
2023-07-23T02:12:39.163Z,61.60
2023-07-23T02:15:07.592Z,62.50
2023-07-23T02:17:35.436Z,62.79
2023-07-23T02:20:04.959Z,62.89
2023-07-23T02:22:32.766Z,62.76
2023-07-23T02:25:00.545Z,63.01
2023-07-23T02:27:28.306Z,63.27
2023-07-23T02:29:57.408Z,62.54
2023-07-23T02:32:25.314Z,63.02
2023-07-23T02:34:55.385Z,62.34
2023-07-23T02:37:23.186Z,62.87
2023-07-23T02:39:50.879Z,62.42
2023-07-23T02:42:18.607Z,62.33
2023-07-23T02:44:46.257Z,62.53
2023-07-23T02:47:15.401Z,62.66
2023-07-23T02:49:43.124Z,62.32
2023-07-23T02:52:10.838Z,62.80
2023-07-23T02:54:38.550Z,62.34
2023-07-23T02:57:06.487Z,62.42
2023-07-23T02:59:36.715Z,62.92
2023-07-23T03:02:06.749Z,62.69
2023-07-23T03:04:38.143Z,62.92
2023-07-23T03:07:06.110Z,62.35
2023-07-23T03:09:33.701Z,62.70
2023-07-23T03:12:01.443Z,63.11
2023-07-23T03:14:29.096Z,63.79
2023-07-23T03:16:59.156Z,63.15
2023-07-23T03:19:29.267Z,64.06
2023-07-23T03:21:58.419Z,62.94
2023-07-23T03:24:26.163Z,63.37
2023-07-23T03:26:53.856Z,63.00
2023-07-23T03:29:21.826Z,63.57
2023-07-23T03:31:49.603Z,63.20
2023-07-23T03:34:19.838Z,63.03
2023-07-23T03:36:47.560Z,62.67
2023-07-23T03:39:19.284Z,63.28
2023-07-23T03:41:47.216Z,62.96
2023-07-23T03:44:15.101Z,62.85
2023-07-23T03:46:44.552Z,62.35
2023-07-23T03:49:12.662Z,62.25
2023-07-23T03:51:40.557Z,62.35
2023-07-23T03:54:08.265Z,62.34
2023-07-23T03:56:37.706Z,62.20
2023-07-23T03:59:07.926Z,62.39
2023-07-23T04:01:35.740Z,62.50
2023-07-23T04:04:03.509Z,62.30
2023-07-23T04:06:31.392Z,62.50
2023-07-23T04:08:59.460Z,62.48
2023-07-23T04:11:27.442Z,64.13
2023-07-23T04:13:56.825Z,73.44
2023-07-23T04:16:24.583Z,67.41
2023-07-23T04:18:53.134Z,65.14
2023-07-23T04:21:22.908Z,67.90
2023-07-23T04:23:51.143Z,65.15
2023-07-23T04:26:19.656Z,65.47
2023-07-23T04:28:47.655Z,64.28
2023-07-23T04:31:19.511Z,64.56
2023-07-23T04:33:47.494Z,63.69
2023-07-23T04:36:15.902Z,63.31
2023-07-23T04:38:44.315Z,62.94
2023-07-23T04:41:12.672Z,63.05
2023-07-23T04:43:41.385Z,62.50
2023-07-23T04:46:12.432Z,63.57
2023-07-23T04:48:41.840Z,62.75
2023-07-23T04:51:10.357Z,62.76
2023-07-23T04:53:38.439Z,63.41
2023-07-23T04:56:08.391Z,61.88
2023-07-23T04:58:38.039Z,62.14
2023-07-23T05:01:11.356Z,63.03
2023-07-23T05:03:42.599Z,62.58
2023-07-23T05:06:14.476Z,62.78
2023-07-23T05:08:45.030Z,62.19
2023-07-23T05:11:14.336Z,62.45
2023-07-23T05:13:45.353Z,61.89
2023-07-23T05:16:14.574Z,62.86
2023-07-23T05:18:44.737Z,61.73
2023-07-23T05:21:15.790Z,61.49
2023-07-23T05:23:46.051Z,61.33
2023-07-23T05:26:14.844Z,60.90
2023-07-23T05:28:43.848Z,61.05
2023-07-23T05:31:12.907Z,60.77
2023-07-23T05:33:41.308Z,59.79
2023-07-23T05:36:12.110Z,60.58
2023-07-23T05:38:41.436Z,60.36
2023-07-23T05:41:10.658Z,59.79
2023-07-23T05:43:39.616Z,60.69
2023-07-23T05:46:09.811Z,59.23
2023-07-23T05:48:39.095Z,60.85
2023-07-23T05:51:08.375Z,59.50
2023-07-23T05:53:39.408Z,59.49
2023-07-23T05:56:10.006Z,58.76
2023-07-23T07:10:35.835Z,48.62
2023-07-23T07:13:13.216Z,48.46
2023-07-23T07:15:45.428Z,48.42
2023-07-23T07:18:16.943Z,49.33
2023-07-23T07:21:07.986Z,48.67
2023-07-23T07:23:49.823Z,47.52
2023-07-23T07:26:44.539Z,47.92
2023-07-23T07:29:41.900Z,47.26
2023-07-23T07:32:26.844Z,46.62
2023-07-23T07:38:31.558Z,45.34
2023-07-23T07:41:05.202Z,45.64
2023-07-23T07:44:03.740Z,45.12
2023-07-23T07:46:43.898Z,44.75
2023-07-23T07:49:19.897Z,44.77
2023-07-23T07:51:51.858Z,44.09
2023-07-23T07:54:23.218Z,45.05
2023-07-23T07:56:56.917Z,44.59
2023-07-23T07:59:41.156Z,44.50
2023-07-23T08:02:18.685Z,43.59
2023-07-23T08:04:56.358Z,43.42
2023-07-23T08:07:35.450Z,42.59
2023-07-23T08:10:31.962Z,43.12
2023-07-23T08:13:28.036Z,43.06
2023-07-23T08:16:19.996Z,43.12
2023-07-23T08:19:19.663Z,42.22
2023-07-23T08:21:59.845Z,43.54
2023-07-23T08:24:32.807Z,44.18
2023-07-23T08:27:11.969Z,43.43
2023-07-23T08:29:50.826Z,43.57
2023-07-23T08:32:37.928Z,44.00
2023-07-23T08:35:12.951Z,43.47
2023-07-23T08:37:53.164Z,44.00
2023-07-23T08:41:00.032Z,42.35
2023-07-23T08:44:32.557Z,41.12
2023-07-23T08:47:21.194Z,41.54
2023-07-23T08:50:07.265Z,42.08
2023-07-23T08:52:55.278Z,41.59
2023-07-23T08:58:58.866Z,42.10
2023-07-23T09:01:44.267Z,41.31
2023-07-23T09:04:29.767Z,41.35
2023-07-23T09:07:22.470Z,41.85
2023-07-23T09:10:15.586Z,40.85
2023-07-23T09:12:55.454Z,41.83
2023-07-23T09:15:39.686Z,41.78
2023-07-23T09:18:30.517Z,41.56
2023-07-23T09:21:23.955Z,40.49
2023-07-23T09:27:35.923Z,39.83
2023-07-23T09:30:44.697Z,40.31
2023-07-23T09:33:48.926Z,40.01
2023-07-23T09:36:45.375Z,40.17
2023-07-23T09:39:29.048Z,40.54
2023-07-23T09:42:14.266Z,41.02
2023-07-23T09:44:53.265Z,39.89
2023-07-23T09:47:38.676Z,39.72
2023-07-23T09:50:21.259Z,39.44
2023-07-23T09:53:04.971Z,39.11
2023-07-23T09:55:55.921Z,39.05
2023-07-23T09:58:56.177Z,38.72
2023-07-23T10:02:36.467Z,37.58
2023-07-23T10:05:18.597Z,38.41
2023-07-23T10:11:30.576Z,38.27
2023-07-23T10:17:51.260Z,37.56
2023-07-23T10:20:41.442Z,38.90
2023-07-23T10:23:25.379Z,39.06
2023-07-23T10:26:36.866Z,39.00
2023-07-23T10:29:23.590Z,38.87
2023-07-23T10:32:52.165Z,38.88
2023-07-23T10:36:18.233Z,38.76
2023-07-23T10:39:11.170Z,37.52
2023-07-23T10:49:20.436Z,37.41
2023-07-23T10:52:01.125Z,37.42
2023-07-23T10:54:41.360Z,37.46
2023-07-23T10:57:32.212Z,37.61
2023-07-23T11:05:09.480Z,37.37
2023-07-23T11:08:34.736Z,36.83
2023-07-23T11:11:39.116Z,35.89
2023-07-23T11:19:02.527Z,36.00
2023-07-23T11:22:06.662Z,33.88
2023-07-23T11:25:03.476Z,34.61
2023-07-23T11:27:49.672Z,34.65
2023-07-23T11:31:14.353Z,33.91
2023-07-23T11:34:17.607Z,33.96
2023-07-23T11:37:29.355Z,33.38
2023-07-23T11:41:38.384Z,33.00
2023-07-23T11:44:10.189Z,32.81
2023-07-23T11:47:10.534Z,34.17
2023-07-23T11:49:55.037Z,32.61
2023-07-23T11:53:00.546Z,33.25
2023-07-23T11:55:50.919Z,33.19
2023-07-23T11:58:40.281Z,32.75
2023-07-23T12:01:19.260Z,33.83
2023-07-23T12:07:16.660Z,33.68
2023-07-23T12:10:00.308Z,34.35
2023-07-23T12:12:43.913Z,34.59
2023-07-23T12:15:25.577Z,34.49
2023-07-23T12:18:03.681Z,34.90
2023-07-23T12:20:44.377Z,34.68
2023-07-23T12:23:23.707Z,34.30
2023-07-23T12:26:00.997Z,35.19
2023-07-23T12:29:00.822Z,35.63
2023-07-23T12:31:39.287Z,34.50
2023-07-23T12:34:17.652Z,35.22
2023-07-23T12:36:56.739Z,35.42
2023-07-23T12:39:31.104Z,35.47
2023-07-23T12:42:08.020Z,36.22
2023-07-23T12:44:45.070Z,36.24
2023-07-23T12:47:21.057Z,35.46
2023-07-23T12:49:57.473Z,36.27
2023-07-23T12:52:35.904Z,36.49
2023-07-23T12:55:12.118Z,36.34
2023-07-23T12:57:47.654Z,37.19
2023-07-23T13:00:24.948Z,36.89
2023-07-23T13:03:01.081Z,37.29
2023-07-23T13:05:37.868Z,36.66
2023-07-23T13:08:16.770Z,37.79
2023-07-23T13:10:52.655Z,36.81
2023-07-23T13:13:33.212Z,37.51
2023-07-23T13:16:08.101Z,36.89
2023-07-23T13:18:46.520Z,37.85
2023-07-23T13:21:21.387Z,37.73
2023-07-23T13:23:55.966Z,37.99
2023-07-23T13:26:29.336Z,37.11
2023-07-23T13:29:07.249Z,37.18
2023-07-23T13:31:42.140Z,37.31
2023-07-23T13:34:18.841Z,37.35
2023-07-23T13:36:55.500Z,37.76
2023-07-23T13:39:30.952Z,37.21
2023-07-23T13:42:03.320Z,37.77
2023-07-23T13:44:36.233Z,39.37
2023-07-23T13:47:12.303Z,40.98
2023-07-23T13:49:50.103Z,40.42
2023-07-23T13:52:27.064Z,39.94
2023-07-23T13:55:05.737Z,39.38
2023-07-23T13:57:42.725Z,38.73
2023-07-23T14:00:19.645Z,38.39
2023-07-23T14:02:54.492Z,37.94
2023-07-23T14:05:33.420Z,37.29
2023-07-23T14:08:11.013Z,37.80
2023-07-23T14:10:44.481Z,36.71
2023-07-23T14:13:15.725Z,37.51
2023-07-23T14:15:47.686Z,37.68
2023-07-23T14:18:19.982Z,36.31
2023-07-23T14:20:53.497Z,36.60
2023-07-23T14:23:25.306Z,36.21
2023-07-23T14:25:59.104Z,35.40
2023-07-23T14:28:29.886Z,35.39
2023-07-23T14:31:02.629Z,35.28
2023-07-23T14:33:35.622Z,34.83
2023-07-23T14:36:10.056Z,33.82
2023-07-23T14:38:47.017Z,33.41
2023-07-23T14:41:22.251Z,32.80
2023-07-23T14:43:54.879Z,33.54
2023-07-23T14:46:30.666Z,33.50
2023-07-23T14:49:05.884Z,33.09
2023-07-23T14:51:38.445Z,34.11
2023-07-23T14:54:08.335Z,34.96
2023-07-23T14:56:39.998Z,35.47
2023-07-23T14:59:10.116Z,35.69
2023-07-23T15:01:41.951Z,36.03
2023-07-23T15:04:14.249Z,36.26
2023-07-23T15:06:44.418Z,36.58
2023-07-23T15:09:14.585Z,36.66
2023-07-23T15:11:52.304Z,36.86
2023-07-23T15:14:24.123Z,37.69
2023-07-23T15:16:57.075Z,36.78
2023-07-23T15:19:28.340Z,36.17
2023-07-23T15:21:58.279Z,36.76
2023-07-23T15:24:29.056Z,36.63
2023-07-23T15:27:05.347Z,36.61
2023-07-23T15:29:39.053Z,35.75
2023-07-23T15:32:10.871Z,36.73
2023-07-23T15:34:40.991Z,35.81
2023-07-23T15:37:11.941Z,34.92
2023-07-23T15:39:44.105Z,36.62
2023-07-23T15:42:15.809Z,37.13
2023-07-23T15:44:46.479Z,38.10
2023-07-23T15:47:16.693Z,37.92
2023-07-23T15:49:46.521Z,38.01
2023-07-23T15:52:15.852Z,38.33
2023-07-23T15:54:45.353Z,37.91
2023-07-23T15:57:16.527Z,37.85
2023-07-23T15:59:46.638Z,37.85
2023-07-23T16:02:16.277Z,38.21
2023-07-23T16:04:48.163Z,38.66
2023-07-23T16:07:18.565Z,37.70
2023-07-23T16:09:47.941Z,38.30
2023-07-23T16:12:18.455Z,37.03
2023-07-23T16:14:50.972Z,37.73
2023-07-23T16:17:22.867Z,37.52
2023-07-23T16:19:53.633Z,38.05
2023-07-23T16:22:24.202Z,38.35
2023-07-23T16:24:54.026Z,38.69
2023-07-23T16:27:27.194Z,38.79
2023-07-23T16:29:57.363Z,39.48
2023-07-23T16:32:28.625Z,39.15
2023-07-23T16:35:00.161Z,38.61
2023-07-23T16:37:33.440Z,38.16
2023-07-23T16:40:05.059Z,38.44
2023-07-23T16:42:37.938Z,38.04
2023-07-23T16:45:11.439Z,37.56
2023-07-23T16:47:41.272Z,37.65
2023-07-23T16:50:12.631Z,37.53
2023-07-23T16:52:42.413Z,37.84
2023-07-23T16:55:13.377Z,38.47
2023-07-23T16:57:45.109Z,38.09
2023-07-23T17:00:16.090Z,38.03
2023-07-23T17:02:45.837Z,37.58
2023-07-23T17:05:15.392Z,36.93
2023-07-23T17:07:44.899Z,38.29
2023-07-23T17:10:14.894Z,38.08
2023-07-23T17:12:47.711Z,37.77
2023-07-23T17:15:16.566Z,38.08
2023-07-23T17:17:47.392Z,37.49
2023-07-23T17:20:18.155Z,39.10
2023-07-23T17:22:47.818Z,39.02
2023-07-23T17:25:18.022Z,39.26
2023-07-23T17:27:48.947Z,39.08
2023-07-23T17:30:18.697Z,39.45
2023-07-23T17:32:48.496Z,38.97
2023-07-23T17:35:18.214Z,38.96
2023-07-23T17:37:47.254Z,39.66
2023-07-23T17:40:17.579Z,39.19
2023-07-23T17:42:49.646Z,39.10
2023-07-23T17:45:20.192Z,38.99
2023-07-23T17:47:49.869Z,38.55
2023-07-23T17:50:19.115Z,38.52
2023-07-23T17:52:48.095Z,39.16
2023-07-23T17:55:17.971Z,39.52
2023-07-23T17:57:48.551Z,39.39
2023-07-23T18:00:18.924Z,39.18
2023-07-23T18:02:48.291Z,39.47
2023-07-23T18:05:17.620Z,39.80
2023-07-23T18:07:47.749Z,39.86
2023-07-23T18:10:17.102Z,40.31
2023-07-23T18:12:48.334Z,40.27
2023-07-23T18:15:17.461Z,40.66
2023-07-23T18:17:46.358Z,40.04
2023-07-23T18:20:16.370Z,40.67
2023-07-23T18:22:45.633Z,40.20
2023-07-23T18:25:15.460Z,39.97
2023-07-23T18:27:45.065Z,39.98
2023-07-23T18:30:16.273Z,39.93
2023-07-23T18:32:45.548Z,40.62
2023-07-23T18:35:15.225Z,40.69
2023-07-23T18:37:44.851Z,41.59
2023-07-23T18:40:14.560Z,41.98
2023-07-23T18:42:45.320Z,42.20
2023-07-23T18:45:16.017Z,42.04
2023-07-23T18:47:45.586Z,42.25
2023-07-23T18:50:14.911Z,43.41
2023-07-23T18:52:45.086Z,44.26
2023-07-23T18:55:15.341Z,45.59
2023-07-23T18:57:45.578Z,44.88
2023-07-23T19:00:17.371Z,44.65
2023-07-23T19:02:46.501Z,44.77
2023-07-23T19:05:16.054Z,44.55
2023-07-23T19:07:45.462Z,44.07
2023-07-23T19:10:14.425Z,45.02
2023-07-23T19:12:44.877Z,44.70
2023-07-23T19:15:13.719Z,45.29
2023-07-23T19:17:43.956Z,46.00
2023-07-23T19:20:15.048Z,47.55
2023-07-23T19:22:43.853Z,46.88
2023-07-23T19:25:12.342Z,46.57
2023-07-23T19:27:40.343Z,46.32
2023-07-23T19:30:09.652Z,47.47
2023-07-23T19:32:37.788Z,47.09
2023-07-23T19:35:08.342Z,47.42
2023-07-23T19:37:36.338Z,46.94
2023-07-23T19:40:04.910Z,47.05
2023-07-23T19:42:32.944Z,47.23
2023-07-23T19:45:01.118Z,47.86
2023-07-23T19:47:29.252Z,48.10
2023-07-23T19:49:57.223Z,48.15
2023-07-23T19:52:27.199Z,48.80
2023-07-23T19:54:55.267Z,48.06
2023-07-23T19:57:26.323Z,47.49
2023-07-23T19:59:54.567Z,46.90
2023-07-23T20:02:23.178Z,47.92
2023-07-23T20:04:51.318Z,49.29
2023-07-23T20:07:19.407Z,50.47
2023-07-23T20:09:48.747Z,49.43
2023-07-23T20:12:16.717Z,48.55
2023-07-23T20:14:45.276Z,47.69
2023-07-23T20:17:13.271Z,47.59
2023-07-23T20:19:41.454Z,49.01
2023-07-23T20:22:09.452Z,49.29
2023-07-23T20:24:37.447Z,50.05
2023-07-23T20:27:08.357Z,48.98
2023-07-23T20:29:37.244Z,48.82
2023-07-23T20:32:05.810Z,49.45
2023-07-23T20:34:34.499Z,49.01
2023-07-23T20:37:03.257Z,49.26
2023-07-23T20:39:32.010Z,49.26
2023-07-23T20:42:00.991Z,49.50
2023-07-23T20:44:32.669Z,49.66
2023-07-23T20:47:00.901Z,49.11
2023-07-23T20:49:28.974Z,49.55
2023-07-23T20:51:57.076Z,48.40
2023-07-23T20:54:28.097Z,48.31
2023-07-23T20:56:56.197Z,49.64
2023-07-23T20:59:24.456Z,49.23
2023-07-23T21:01:54.314Z,48.95
2023-07-23T21:04:22.857Z,48.41
2023-07-23T21:06:51.140Z,48.30
2023-07-23T21:09:19.504Z,48.37
2023-07-23T21:11:47.606Z,49.48
2023-07-23T21:14:15.727Z,49.09
2023-07-23T21:16:43.917Z,49.71
2023-07-23T21:19:13.337Z,51.30
2023-07-23T21:21:41.515Z,49.57
2023-07-23T21:24:09.737Z,49.75
2023-07-23T21:26:39.485Z,49.57
2023-07-23T21:29:07.675Z,49.88
2023-07-23T21:31:35.620Z,51.19
2023-07-23T21:34:03.671Z,60.62
2023-07-23T21:36:33.329Z,69.51
2023-07-23T21:39:01.683Z,68.43
2023-07-23T21:41:29.804Z,67.08
2023-07-23T21:43:58.028Z,65.56
2023-07-23T21:46:26.094Z,65.60
2023-07-23T21:48:54.169Z,70.42
2023-07-23T21:51:22.265Z,71.53
2023-07-23T21:53:52.049Z,68.09
2023-07-23T21:56:20.122Z,66.16
2023-07-23T21:58:48.360Z,65.48
2023-07-23T22:01:16.369Z,66.25
2023-07-23T22:03:47.045Z,65.07
2023-07-23T22:06:15.453Z,64.65
2023-07-23T22:08:43.549Z,63.84
2023-07-23T22:11:13.053Z,66.59
2023-07-23T22:13:42.014Z,66.22
2023-07-23T22:16:10.247Z,68.16
2023-07-23T22:18:38.503Z,66.67
2023-07-23T22:21:06.906Z,69.00
2023-07-23T22:23:35.124Z,67.96
2023-07-23T22:26:03.273Z,67.87
2023-07-23T22:28:32.594Z,66.86
2023-07-23T22:31:00.543Z,67.34
2023-07-23T22:33:28.632Z,65.76
2023-07-23T22:35:57.073Z,65.69
2023-07-23T22:38:25.325Z,65.95
2023-07-23T22:40:53.623Z,66.28
2023-07-23T22:43:22.003Z,63.04
2023-07-23T22:45:52.141Z,66.29
2023-07-23T22:48:20.467Z,66.89
2023-07-23T22:50:48.803Z,67.84
2023-07-23T22:53:17.165Z,77.47
2023-07-23T22:55:45.485Z,74.05
2023-07-23T22:58:13.713Z,70.49
2023-07-23T23:00:44.358Z,67.05
2023-07-23T23:03:14.024Z,64.37
2023-07-23T23:05:42.483Z,66.22
2023-07-23T23:08:10.530Z,64.29
2023-07-23T23:10:39.097Z,66.18
2023-07-23T23:13:07.185Z,66.14
2023-07-23T23:15:35.474Z,64.32
2023-07-23T23:18:03.863Z,65.55
2023-07-23T23:20:35.017Z,65.44
2023-07-23T23:23:03.514Z,64.83
2023-07-23T23:25:31.684Z,69.29
2023-07-23T23:27:59.827Z,70.35
2023-07-23T23:30:27.909Z,71.82
2023-07-23T23:32:56.018Z,75.10
2023-07-23T23:35:24.044Z,71.78
2023-07-23T23:37:54.203Z,72.28
2023-07-23T23:40:22.228Z,71.20
2023-07-23T23:42:50.458Z,68.72
2023-07-23T23:45:20.723Z,67.57
2023-07-23T23:47:48.732Z,69.42
2023-07-23T23:50:16.993Z,68.79
2023-07-23T23:52:45.115Z,69.94
2023-07-23T23:55:14.294Z,70.95
2023-07-23T23:57:42.196Z,68.74
